createdAt,value
2023-03-31T00:01:10.239Z,21.33
2023-03-31T00:03:38.886Z,21.29
2023-03-31T00:06:07.383Z,21.31
2023-03-31T00:08:40.242Z,21.68
2023-03-31T00:11:08.663Z,21.85
2023-03-31T00:13:37.701Z,22.11
2023-03-31T00:16:09.905Z,22.23
2023-03-31T00:18:40.822Z,21.79
2023-03-31T00:21:14.451Z,20.84
2023-03-31T00:23:42.570Z,20.72
2023-03-31T00:26:10.358Z,20.28
2023-03-31T00:28:38.072Z,21.10
2023-03-31T00:31:07.169Z,20.86
2023-03-31T00:33:34.912Z,21.26
2023-03-31T00:36:06.322Z,21.30
2023-03-31T00:38:35.311Z,20.83
2023-03-31T00:41:03.933Z,21.54
2023-03-31T00:43:33.900Z,21.07
2023-03-31T00:46:07.361Z,21.27
2023-03-31T00:48:38.630Z,21.15
2023-03-31T00:51:08.442Z,21.13
2023-03-31T00:53:38.045Z,22.22
2023-03-31T00:56:10.281Z,22.79
2023-03-31T00:58:43.826Z,22.11
2023-03-31T01:01:17.804Z,20.92
2023-03-31T01:03:48.418Z,21.22
2023-03-31T01:06:19.888Z,21.80
2023-03-31T01:08:50.080Z,21.41
2023-03-31T01:11:21.056Z,21.26
2023-03-31T01:13:51.735Z,20.62
2023-03-31T01:16:20.088Z,20.13
2023-03-31T01:18:50.127Z,20.41
2023-03-31T01:22:02.596Z,20.67
2023-03-31T01:25:01.652Z,20.72
2023-03-31T01:27:55.146Z,21.26
2023-03-31T01:30:52.521Z,20.82
2023-03-31T01:33:52.163Z,21.08
2023-03-31T01:36:58.922Z,21.01
2023-03-31T01:39:57.463Z,20.96
2023-03-31T01:42:35.122Z,20.62
2023-03-31T01:45:16.717Z,21.99
2023-03-31T01:47:51.966Z,20.88
2023-03-31T01:50:25.763Z,21.70
2023-03-31T01:53:02.757Z,21.24
2023-03-31T01:55:36.779Z,21.93
2023-03-31T01:58:09.980Z,21.67
2023-03-31T02:00:42.143Z,21.72
2023-03-31T02:03:14.785Z,20.30
2023-03-31T02:05:48.487Z,21.14
2023-03-31T02:08:20.981Z,21.50
2023-03-31T02:10:51.507Z,21.36
2023-03-31T02:13:22.222Z,21.64
2023-03-31T02:15:54.462Z,22.53
2023-03-31T02:18:27.461Z,21.22
2023-03-31T02:20:57.564Z,20.70
2023-03-31T02:23:29.552Z,20.76
2023-03-31T02:26:04.053Z,22.02
2023-03-31T02:28:32.343Z,22.40
2023-03-31T02:31:22.359Z,21.62
2023-03-31T02:33:50.810Z,20.87
2023-03-31T02:36:19.648Z,20.80
2023-03-31T02:38:52.380Z,20.78
2023-03-31T02:41:21.722Z,20.57
2023-03-31T02:43:49.424Z,21.52
2023-03-31T02:46:17.165Z,20.66
2023-03-31T02:48:49.448Z,22.14
2023-03-31T02:51:41.501Z,20.91
2023-03-31T02:54:37.765Z,22.14
2023-03-31T02:57:28.323Z,20.72
2023-03-31T03:00:09.316Z,20.21
2023-03-31T03:02:52.020Z,20.54
2023-03-31T03:05:29.510Z,21.12
2023-03-31T03:08:06.434Z,21.59
2023-03-31T03:10:42.668Z,20.57
2023-03-31T03:13:20.062Z,20.74
2023-03-31T03:15:50.682Z,20.95
2023-03-31T03:18:18.627Z,20.40
2023-03-31T03:20:49.109Z,21.75
2023-03-31T03:23:17.939Z,21.54
2023-03-31T03:25:46.110Z,21.45
2023-03-31T03:28:15.358Z,21.37
2023-03-31T03:30:43.129Z,21.37
2023-03-31T03:33:11.130Z,20.54
2023-03-31T03:35:38.981Z,20.43
2023-03-31T03:38:06.746Z,21.54
2023-03-31T03:40:34.555Z,22.04
2023-03-31T03:43:02.344Z,20.98
2023-03-31T03:45:31.546Z,21.55
2023-03-31T03:47:59.319Z,22.04
2023-03-31T03:50:27.183Z,21.00
2023-03-31T03:52:54.976Z,21.95
2023-03-31T03:55:23.107Z,20.75
2023-03-31T03:57:50.832Z,21.58
2023-03-31T04:00:19.116Z,20.31
2023-03-31T04:02:48.245Z,20.33
2023-03-31T04:05:16.156Z,19.81
2023-03-31T04:07:44.106Z,20.47
2023-03-31T04:10:11.943Z,20.88
2023-03-31T04:12:39.659Z,19.91
2023-03-31T04:15:08.556Z,21.02
2023-03-31T04:17:37.489Z,20.80
2023-03-31T04:20:09.919Z,20.23
2023-03-31T04:22:41.581Z,20.39
2023-03-31T04:25:14.785Z,20.77
2023-03-31T04:27:46.734Z,20.18
2023-03-31T04:30:22.543Z,20.28
2023-03-31T04:32:51.499Z,20.28
2023-03-31T04:35:21.659Z,19.69
2023-03-31T04:37:49.667Z,20.28
2023-03-31T04:40:17.587Z,20.18
2023-03-31T04:42:45.948Z,20.20
2023-03-31T04:45:14.214Z,19.98
2023-03-31T04:47:42.460Z,20.40
2023-03-31T04:50:14.495Z,20.79
2023-03-31T04:52:45.568Z,20.67
2023-03-31T04:55:13.258Z,20.47
2023-03-31T04:57:42.044Z,19.89
2023-03-31T05:00:11.452Z,21.58
2023-03-31T05:02:39.272Z,21.14
2023-03-31T05:05:07.366Z,20.21
2023-03-31T05:07:35.099Z,20.91
2023-03-31T05:10:04.580Z,20.49
2023-03-31T05:12:36.054Z,20.61
2023-03-31T05:15:03.961Z,20.41
2023-03-31T05:17:33.041Z,20.65
2023-03-31T05:20:01.093Z,21.64
2023-03-31T05:22:29.099Z,21.29
2023-03-31T05:24:56.831Z,20.72
2023-03-31T05:27:26.085Z,21.27
2023-03-31T05:29:53.760Z,20.84
2023-03-31T05:32:21.517Z,19.70
2023-03-31T05:34:52.033Z,19.81
2023-03-31T05:37:20.918Z,19.47
2023-03-31T05:39:48.651Z,20.08
2023-03-31T05:42:16.415Z,20.02
2023-03-31T05:44:45.500Z,20.68
2023-03-31T05:47:13.565Z,19.49
2023-03-31T05:49:41.334Z,20.38
2023-03-31T05:52:09.926Z,20.59
2023-03-31T05:54:37.697Z,20.49
2023-03-31T05:57:05.735Z,21.41
2023-03-31T05:59:35.603Z,20.66
2023-03-31T06:02:05.266Z,20.48
2023-03-31T06:04:33.466Z,21.60
2023-03-31T06:07:01.470Z,20.35
2023-03-31T06:09:29.451Z,20.19
2023-03-31T06:11:57.195Z,19.81
2023-03-31T06:14:24.977Z,20.42
2023-03-31T06:16:52.711Z,20.92
2023-03-31T06:19:21.956Z,20.70
2023-03-31T06:21:49.784Z,19.92
2023-03-31T06:24:17.510Z,19.95
2023-03-31T06:26:45.336Z,20.38
2023-03-31T06:29:13.017Z,20.13
2023-03-31T06:31:40.844Z,20.03
2023-03-31T06:34:08.648Z,19.90
2023-03-31T06:36:37.771Z,20.98
2023-03-31T06:39:05.495Z,21.07
2023-03-31T06:41:33.321Z,21.70
2023-03-31T06:44:01.048Z,21.21
2023-03-31T06:46:28.882Z,21.12
2023-03-31T06:48:56.624Z,20.48
2023-03-31T06:51:24.421Z,20.61
2023-03-31T06:53:53.568Z,21.41
2023-03-31T06:56:21.954Z,21.04
2023-03-31T06:58:49.726Z,20.36
2023-03-31T07:01:17.636Z,20.64
2023-03-31T07:03:45.501Z,19.95
2023-03-31T07:06:13.357Z,20.16
2023-03-31T07:08:41.145Z,19.75
2023-03-31T07:11:10.630Z,20.37
2023-03-31T07:13:38.649Z,19.59
2023-03-31T07:16:08.010Z,20.27
2023-03-31T07:18:36.641Z,19.79
2023-03-31T07:21:09.430Z,20.97
2023-03-31T07:23:37.935Z,20.41
2023-03-31T07:26:06.253Z,21.57
2023-03-31T07:28:36.042Z,20.03
2023-03-31T07:31:04.060Z,20.74
2023-03-31T07:33:32.061Z,20.23
2023-03-31T07:36:10.776Z,19.83
2023-03-31T07:38:40.631Z,21.27
2023-03-31T07:41:12.865Z,21.10
2023-03-31T07:43:42.388Z,20.37
2023-03-31T07:46:15.922Z,20.36
2023-03-31T07:48:44.015Z,19.57
2023-03-31T07:51:11.724Z,20.39
2023-03-31T07:53:39.471Z,21.86
2023-03-31T07:56:07.661Z,20.09
2023-03-31T07:58:35.807Z,19.89
2023-03-31T08:01:05.753Z,20.60
2023-03-31T08:03:34.582Z,20.90
2023-03-31T08:06:02.638Z,20.39
2023-03-31T08:08:30.389Z,20.63
2023-03-31T08:10:58.102Z,20.36
2023-03-31T08:13:25.999Z,20.71
2023-03-31T08:15:53.754Z,20.96
2023-03-31T08:18:22.869Z,21.32
2023-03-31T08:20:50.952Z,20.28
2023-03-31T08:23:18.778Z,21.53
2023-03-31T08:25:47.308Z,20.88
2023-03-31T08:28:15.089Z,20.43
2023-03-31T08:30:43.538Z,20.32
2023-03-31T08:33:12.363Z,20.69
2023-03-31T08:35:41.734Z,19.97
2023-03-31T08:38:09.465Z,20.83
2023-03-31T08:40:44.963Z,20.70
2023-03-31T08:43:21.703Z,20.86
2023-03-31T08:45:50.936Z,21.28
2023-03-31T08:48:26.093Z,20.92
2023-03-31T08:51:00.622Z,20.60
2023-03-31T08:53:31.392Z,21.15
2023-03-31T08:56:01.149Z,20.49
2023-03-31T08:58:37.336Z,20.71
2023-03-31T09:01:17.359Z,21.45
2023-03-31T09:03:53.699Z,19.88
2023-03-31T09:06:27.876Z,19.89
2023-03-31T09:09:00.557Z,21.53
2023-03-31T09:11:36.289Z,20.83
2023-03-31T09:14:13.706Z,21.26
2023-03-31T09:16:48.961Z,21.80
2023-03-31T09:19:25.015Z,20.69
2023-03-31T09:21:56.488Z,22.57
2023-03-31T09:24:29.727Z,21.56
2023-03-31T09:27:02.956Z,23.20
2023-03-31T09:29:43.282Z,21.88
2023-03-31T09:32:16.659Z,21.60
2023-03-31T09:34:44.319Z,20.99
2023-03-31T09:37:13.993Z,19.99
2023-03-31T09:39:42.141Z,20.66
2023-03-31T09:42:13.439Z,20.22
2023-03-31T09:44:44.631Z,19.91
2023-03-31T09:47:19.966Z,20.94
2023-03-31T09:49:54.140Z,21.29
2023-03-31T09:52:29.893Z,21.41
2023-03-31T09:55:00.492Z,20.86
2023-03-31T09:57:32.745Z,20.54
2023-03-31T10:00:14.684Z,20.01
2023-03-31T10:02:45.676Z,20.48
2023-03-31T10:05:26.963Z,20.89
2023-03-31T10:08:15.428Z,21.48
2023-03-31T10:10:47.111Z,20.55
2023-03-31T10:13:18.435Z,22.03
2023-03-31T10:15:46.328Z,23.50
2023-03-31T10:18:16.011Z,21.87
2023-03-31T10:20:49.735Z,20.65
2023-03-31T10:23:26.033Z,21.14
2023-03-31T10:25:54.575Z,20.75
2023-03-31T10:28:23.602Z,20.72
2023-03-31T10:30:53.558Z,21.04
2023-03-31T10:33:25.916Z,21.87
2023-03-31T10:35:57.501Z,21.31
2023-03-31T10:38:29.225Z,22.06
2023-03-31T10:40:58.582Z,21.01
2023-03-31T10:43:28.842Z,21.81
2023-03-31T10:45:59.988Z,21.84
2023-03-31T10:48:29.598Z,21.72
2023-03-31T10:51:01.599Z,21.89
2023-03-31T10:53:30.781Z,21.53
2023-03-31T10:56:07.880Z,20.92
2023-03-31T10:58:58.390Z,20.99
2023-03-31T11:01:45.831Z,20.73
2023-03-31T11:04:34.923Z,21.71
2023-03-31T11:07:14.700Z,21.71
2023-03-31T11:09:54.170Z,21.58
2023-03-31T11:12:28.913Z,22.36
2023-03-31T11:15:09.708Z,22.24
2023-03-31T11:17:52.848Z,21.68
2023-03-31T11:20:30.817Z,22.48
2023-03-31T11:23:06.186Z,22.40
2023-03-31T11:28:27.705Z,22.29
2023-03-31T11:31:04.735Z,21.37
2023-03-31T11:33:46.005Z,21.50
2023-03-31T11:36:36.732Z,22.25
2023-03-31T11:39:20.497Z,20.84
2023-03-31T11:41:52.161Z,17.79
2023-03-31T11:44:21.548Z,16.58
2023-03-31T11:46:54.037Z,18.48
2023-03-31T11:49:25.739Z,18.51
2023-03-31T11:51:56.836Z,19.06
2023-03-31T11:54:29.882Z,20.42
2023-03-31T11:57:03.239Z,21.28
2023-03-31T11:59:33.075Z,22.38
2023-03-31T12:02:10.467Z,22.27
2023-03-31T12:04:42.192Z,22.28
2023-03-31T12:07:23.837Z,21.78
2023-03-31T12:09:56.382Z,21.87
2023-03-31T12:12:30.512Z,21.94
2023-03-31T12:15:05.519Z,20.91
2023-03-31T12:17:36.229Z,21.99
2023-03-31T12:20:13.445Z,21.22
2023-03-31T12:22:45.349Z,21.16
2023-03-31T12:25:14.901Z,21.44
2023-03-31T12:27:49.501Z,21.30
2023-03-31T12:30:34.527Z,20.51
2023-03-31T12:33:06.033Z,20.61
2023-03-31T12:35:46.542Z,20.74
2023-03-31T12:38:34.267Z,20.03
2023-03-31T12:41:11.713Z,19.03
2023-03-31T12:44:13.591Z,19.52
2023-03-31T12:46:57.607Z,20.69
2023-03-31T12:49:41.620Z,20.31
2023-03-31T12:52:18.264Z,19.32
2023-03-31T12:55:21.522Z,19.12
2023-03-31T12:57:49.351Z,20.95
2023-03-31T13:00:22.916Z,21.17
2023-03-31T13:02:51.716Z,20.34
2023-03-31T13:05:49.950Z,19.40
2023-03-31T13:08:53.024Z,19.08
2023-03-31T13:11:23.066Z,19.10
2023-03-31T13:14:01.017Z,21.01
2023-03-31T13:16:31.305Z,21.28
2023-03-31T13:18:59.646Z,21.81
2023-03-31T13:21:27.684Z,21.08
2023-03-31T13:24:01.011Z,20.74
2023-03-31T13:26:41.124Z,20.67
2023-03-31T13:29:21.416Z,21.03
2023-03-31T13:32:20.294Z,21.37
2023-03-31T13:34:53.254Z,21.43
2023-03-31T13:37:38.413Z,21.48
2023-03-31T13:40:47.497Z,20.00
2023-03-31T13:43:32.598Z,20.86
2023-03-31T13:46:27.445Z,21.75
2023-03-31T13:49:11.104Z,22.47
2023-03-31T13:51:47.016Z,22.17
2023-03-31T13:54:50.457Z,21.57
2023-03-31T13:58:24.927Z,21.72
2023-03-31T14:01:17.743Z,22.29
2023-03-31T14:03:59.861Z,22.61
2023-03-31T14:06:35.490Z,22.86
2023-03-31T14:09:06.781Z,21.42
2023-03-31T14:11:34.800Z,21.87
2023-03-31T14:14:05.044Z,21.97
2023-03-31T14:16:37.313Z,21.98
2023-03-31T14:19:33.299Z,22.34
2023-03-31T14:22:12.290Z,21.82
2023-03-31T14:24:48.607Z,23.71
2023-03-31T14:27:32.384Z,22.28
2023-03-31T14:30:12.986Z,21.44
2023-03-31T14:32:49.849Z,21.94
2023-03-31T14:35:32.445Z,21.96
2023-03-31T14:38:04.920Z,22.00
2023-03-31T14:40:32.724Z,21.12
2023-03-31T14:43:00.487Z,22.48
2023-03-31T14:45:31.908Z,22.22
2023-03-31T14:48:04.142Z,22.19
2023-03-31T14:50:35.654Z,22.94
2023-03-31T14:53:05.049Z,22.47
2023-03-31T14:58:06.503Z,23.50
2023-03-31T15:00:36.014Z,22.91
2023-03-31T15:03:08.806Z,23.08
2023-03-31T15:05:39.108Z,22.99
2023-03-31T15:08:12.769Z,22.77
2023-03-31T15:10:45.614Z,22.65
2023-03-31T15:13:18.004Z,24.32
2023-03-31T15:15:46.404Z,22.72
2023-03-31T15:18:15.738Z,23.06
2023-03-31T15:20:44.730Z,23.83
2023-03-31T15:23:25.953Z,21.96
2023-03-31T15:25:58.566Z,22.41
2023-03-31T15:28:29.879Z,22.56
2023-03-31T15:31:09.599Z,22.32
2023-03-31T15:33:41.767Z,22.90
2023-03-31T15:36:12.887Z,23.13
2023-03-31T15:38:42.367Z,22.33
2023-03-31T15:41:13.616Z,22.90
2023-03-31T15:43:50.544Z,23.48
2023-03-31T15:46:21.124Z,22.99
2023-03-31T15:48:54.185Z,22.81
2023-03-31T15:51:26.687Z,21.22
2023-03-31T15:53:55.832Z,22.03
2023-03-31T15:56:33.586Z,22.46
2023-03-31T15:59:05.241Z,21.69
2023-03-31T16:01:35.999Z,22.96
2023-03-31T16:04:08.474Z,23.12
2023-03-31T16:06:43.329Z,22.11
2023-03-31T16:09:17.579Z,22.74
2023-03-31T16:11:48.390Z,23.27
2023-03-31T16:14:21.409Z,22.46
2023-03-31T16:16:52.801Z,23.70
2023-03-31T16:19:24.302Z,22.03
2023-03-31T16:21:55.823Z,22.84
2023-03-31T16:24:32.626Z,21.29
2023-03-31T16:27:06.100Z,22.44
2023-03-31T16:29:35.120Z,21.33
2023-03-31T16:32:11.789Z,21.87
2023-03-31T16:34:54.331Z,21.31
2023-03-31T16:37:22.206Z,20.95
2023-03-31T16:39:51.703Z,21.06
2023-03-31T16:42:20.202Z,22.07
2023-03-31T16:44:59.810Z,22.88
2023-03-31T16:47:36.547Z,22.11
2023-03-31T16:50:07.291Z,22.01
2023-03-31T16:52:35.868Z,22.26
2023-03-31T16:55:05.447Z,22.94
2023-03-31T16:57:33.392Z,22.10
2023-03-31T17:00:01.762Z,20.81
2023-03-31T17:02:29.611Z,21.25
2023-03-31T17:05:06.203Z,21.59
2023-03-31T17:07:40.766Z,20.54
2023-03-31T17:10:11.183Z,21.18
2023-03-31T17:12:39.026Z,22.20
2023-03-31T17:15:07.884Z,21.79
2023-03-31T17:17:36.063Z,21.86
2023-03-31T17:20:04.569Z,21.90
2023-03-31T17:22:32.630Z,21.59
2023-03-31T17:25:00.436Z,21.90
2023-03-31T17:27:30.909Z,21.87
2023-03-31T17:29:59.160Z,20.87
2023-03-31T17:32:27.640Z,21.19
2023-03-31T17:34:55.428Z,21.79
2023-03-31T17:37:23.254Z,20.69
2023-03-31T17:39:51.068Z,21.33
2023-03-31T17:42:20.405Z,22.34
2023-03-31T17:44:51.672Z,21.63
2023-03-31T17:47:20.441Z,21.68
2023-03-31T17:49:48.162Z,20.92
2023-03-31T17:52:16.039Z,21.94
2023-03-31T17:54:43.784Z,22.36
2023-03-31T17:57:11.571Z,22.65
2023-03-31T17:59:39.309Z,20.97
2023-03-31T18:02:08.580Z,21.22
2023-03-31T18:04:36.417Z,21.93
2023-03-31T18:07:04.153Z,20.75
2023-03-31T18:09:32.009Z,22.23
2023-03-31T18:11:59.696Z,20.97
2023-03-31T18:14:27.649Z,22.46
2023-03-31T18:16:56.219Z,21.72
2023-03-31T18:19:25.352Z,21.53
2023-03-31T18:21:53.051Z,20.68
2023-03-31T18:24:20.744Z,21.01
2023-03-31T18:26:48.454Z,20.62
2023-03-31T18:29:16.352Z,21.22
2023-03-31T18:31:44.138Z,20.18
2023-03-31T18:34:13.508Z,21.02
2023-03-31T18:36:43.458Z,20.66
2023-03-31T18:39:11.698Z,21.22
2023-03-31T18:41:43.851Z,21.12
2023-03-31T18:44:13.693Z,21.61
2023-03-31T18:46:42.386Z,21.20
2023-03-31T18:49:10.199Z,20.24
2023-03-31T18:51:37.923Z,20.70
2023-03-31T18:54:07.323Z,21.15
2023-03-31T18:56:35.410Z,20.47
2023-03-31T18:59:04.776Z,20.01
2023-03-31T19:01:35.104Z,21.48
2023-03-31T19:04:02.865Z,21.09
2023-03-31T19:06:30.667Z,21.48
2023-03-31T19:08:58.546Z,20.37
2023-03-31T19:11:27.800Z,20.86
2023-03-31T19:13:56.462Z,21.43
2023-03-31T19:16:26.733Z,20.76
2023-03-31T19:18:55.148Z,20.78
2023-03-31T19:21:23.007Z,20.94
2023-03-31T19:23:50.842Z,22.04
2023-03-31T19:26:19.681Z,21.34
2023-03-31T19:28:49.139Z,20.58
2023-03-31T19:31:16.944Z,21.40
2023-03-31T19:33:44.710Z,21.49
2023-03-31T19:36:13.146Z,20.76
2023-03-31T19:38:41.188Z,20.54
2023-03-31T19:41:10.836Z,21.06
2023-03-31T19:43:38.624Z,20.67
2023-03-31T19:46:07.911Z,20.73
2023-03-31T19:48:35.851Z,21.79
2023-03-31T19:51:05.897Z,20.95
2023-03-31T19:53:34.082Z,21.94
2023-03-31T19:56:03.879Z,21.04
2023-03-31T19:58:35.184Z,20.65
2023-03-31T20:01:06.425Z,21.58
2023-03-31T20:03:36.137Z,21.88
2023-03-31T20:06:07.064Z,22.23
2023-03-31T20:08:35.101Z,21.35
2023-03-31T20:11:03.918Z,20.74
2023-03-31T20:13:32.550Z,21.49
2023-03-31T20:16:01.887Z,20.50
2023-03-31T20:18:30.312Z,20.88
2023-03-31T20:21:08.028Z,19.98
2023-03-31T20:23:36.481Z,20.39
2023-03-31T20:26:04.746Z,21.32
2023-03-31T20:28:34.613Z,21.47
2023-03-31T20:31:07.309Z,20.92
2023-03-31T20:33:35.178Z,21.28
2023-03-31T20:36:04.106Z,20.02
2023-03-31T20:38:34.157Z,21.00
2023-03-31T20:41:01.930Z,21.73
2023-03-31T20:43:29.712Z,20.70
2023-03-31T20:46:03.002Z,20.43
2023-03-31T20:48:31.336Z,20.82
2023-03-31T20:50:59.436Z,20.10
2023-03-31T20:53:27.177Z,19.10
2023-03-31T20:55:56.505Z,20.60
2023-03-31T20:58:24.362Z,19.23
2023-03-31T21:00:59.322Z,19.45
2023-03-31T21:03:27.206Z,19.49
2023-03-31T21:05:55.016Z,20.66
2023-03-31T21:08:22.734Z,20.46
2023-03-31T21:10:50.597Z,19.18
2023-03-31T21:13:19.720Z,20.53
2023-03-31T21:15:54.352Z,19.04
2023-03-31T21:18:22.308Z,20.14
2023-03-31T21:20:51.786Z,19.37
2023-03-31T21:23:20.087Z,21.09
2023-03-31T21:25:49.368Z,21.14
2023-03-31T21:28:17.090Z,21.30
2023-03-31T21:30:54.331Z,21.36
2023-03-31T21:33:22.948Z,20.50
2023-03-31T21:35:51.183Z,19.71
2023-03-31T21:38:19.828Z,20.15
2023-03-31T21:40:48.048Z,19.86
2023-03-31T21:43:16.439Z,20.23
2023-03-31T21:45:44.246Z,19.71
2023-03-31T21:48:13.466Z,20.94
2023-03-31T21:50:42.719Z,21.29
2023-03-31T21:53:12.292Z,20.23
2023-03-31T21:55:40.775Z,20.73
2023-03-31T21:58:08.509Z,19.79
2023-03-31T22:00:37.247Z,20.18
2023-03-31T22:03:22.400Z,20.79
2023-03-31T22:05:54.275Z,20.90
2023-03-31T22:08:22.014Z,19.92
2023-03-31T22:10:50.744Z,19.87
2023-03-31T22:13:18.964Z,19.47
2023-03-31T22:15:46.841Z,19.37
2023-03-31T22:18:14.785Z,19.95
2023-03-31T22:20:42.474Z,20.74
2023-03-31T22:23:11.554Z,20.72
2023-03-31T22:25:39.646Z,20.44
2023-03-31T22:28:07.882Z,20.20
2023-03-31T22:30:35.700Z,20.53
2023-03-31T22:33:03.497Z,20.64
2023-03-31T22:35:31.733Z,20.49
2023-03-31T22:37:59.762Z,20.86
2023-03-31T22:40:30.065Z,19.88
2023-03-31T22:42:58.568Z,21.32
2023-03-31T22:45:26.392Z,20.84
2023-03-31T22:47:54.267Z,21.32
2023-03-31T22:50:22.242Z,20.50
2023-03-31T22:52:50.000Z,19.92
2023-03-31T22:55:17.899Z,21.28
2023-03-31T22:57:47.548Z,20.71
2023-03-31T23:00:16.143Z,21.11
2023-03-31T23:02:43.947Z,20.73
2023-03-31T23:05:12.199Z,20.30
2023-03-31T23:07:39.941Z,20.96
2023-03-31T23:10:08.911Z,21.11
2023-03-31T23:12:36.738Z,21.08
2023-03-31T23:15:06.349Z,20.80
2023-03-31T23:17:34.262Z,20.66
2023-03-31T23:20:02.064Z,20.77
2023-03-31T23:22:29.842Z,20.64
2023-03-31T23:24:57.541Z,20.95
2023-03-31T23:27:25.531Z,20.03
2023-03-31T23:29:53.312Z,19.76
2023-03-31T23:32:22.553Z,19.43
2023-03-31T23:34:50.385Z,18.86
2023-03-31T23:37:18.921Z,19.38
2023-03-31T23:39:46.595Z,20.27
2023-03-31T23:42:17.420Z,20.13
2023-03-31T23:44:45.178Z,20.54
2023-03-31T23:47:13.157Z,19.94
2023-03-31T23:49:42.303Z,20.49
2023-03-31T23:52:10.020Z,20.88
2023-03-31T23:54:37.727Z,20.18
2023-03-31T23:57:05.537Z,19.97
2023-03-31T23:59:33.284Z,21.07
